Black Eagle — WDJJ — position and weather

sailwx.info

Track history (hours):
 
Tides and Currents Weather Stations Pressure Air Temp Water Temp Dewpoint Dewpoint Depression Visibility Wind Speed Wind Dir Waves Ship Positions

Black Eagle

Owner: Sealift Inc., Oyster Bay, NY. More information available from US FCC via Universal Licensing System and Coast Guard Vessel Documentation Center.

Last reported at 2016-Jan-19 10:31 UTC. Time now 2016-Feb-10 20:04 UTC.
Position N 01°12' E 103°35'.
Warning: this ship's position is 22 days out of date.

Length 190 m; draft 11.5 m.

Type: Cargo ship. MMSI: 369542000.

Date/timePositionNaut miles runAvg speedWind from/ knotsBaromVisibWave heightAir tempDewpointWater temp
2016-Jan-19 10:31N 01°12' E 103°35'1212.1
2016-Jan-19 09:33N 01°10' E 103°47'3 3.3
2016-Jan-19 08:33N 01°13' E 103°49'2 2.3
2016-Jan-19 07:33N 01°13' E 103°51'3 2.5
2016-Jan-19 06:31N 01°15' E 103°53'0 0.1
2016-Jan-19 05:31N 01°15' E 103°53'0 0.0
2016-Jan-19 04:31N 01°15' E 103°53'0 0.0
2016-Jan-19 03:31N 01°15' E 103°53'0 0.1
2016-Jan-19 02:31N 01°15' E 103°53'0 0.1
2016-Jan-19 01:31N 01°15' E 103°53'0 0.1
2016-Jan-19 00:31N 01°15' E 103°53'0 0.0
2016-Jan-18 23:19N 01°15' E 103°53'0 0.0
2016-Jan-18 22:16N 01°15' E 103°53'0 0.0
2016-Jan-18 19:25N 01°15' E 103°53'0 0.0
2016-Jan-18 18:22N 01°15' E 103°53'0 0.0
2016-Jan-18 17:31N 01°15' E 103°53'0 0.0
2016-Jan-18 16:31N 01°15' E 103°53'0 0.0
2016-Jan-18 15:31N 01°15' E 103°53'0 0.0
2016-Jan-18 14:31N 01°15' E 103°53'0 0.0
2016-Jan-18 13:31N 01°15' E 103°53'0 0.0
2016-Jan-18 12:31N 01°15' E 103°53'0 0.0
2016-Jan-18 11:31N 01°15' E 103°53'0 0.0
2016-Jan-18 10:33N 01°15' E 103°53'0 0.0
2016-Jan-18 09:33N 01°15' E 103°53'0 0.2
2016-Jan-18 08:33N 01°15' E 103°53'5 4.7
2016-Jan-18 07:33N 01°15' E 103°58'10 9.9
2016-Jan-18 06:33N 01°16' E 104°07'  
Track history (hours):
 
Tides and Currents Weather Stations Pressure Air Temp Water Temp Dewpoint Dewpoint Depression Visibility Wind Speed Wind Dir Waves Ship Positions

Black Eagle

Owner: Sealift Inc., Oyster Bay, NY. More information available from US FCC via Universal Licensing System and Coast Guard Vessel Documentation Center.

Last reported at 2016-Jan-19 10:31 UTC. Time now 2016-Feb-10 20:04 UTC.
Position N 01°12' E 103°35'.
Warning: this ship's position is 22 days out of date.

Length 190 m; draft 11.5 m.

Type: Cargo ship. MMSI: 369542000.

Date/timePositionNaut miles runAvg speedWind from/ knotsBaromVisibWave heightAir tempDewpointWater temp
2016-Jan-19 10:31N 01°12' E 103°35'1212.1
2016-Jan-19 09:33N 01°10' E 103°47'3 3.3
2016-Jan-19 08:33N 01°13' E 103°49'2 2.3
2016-Jan-19 07:33N 01°13' E 103°51'3 2.5
2016-Jan-19 06:31N 01°15' E 103°53'0 0.1
2016-Jan-19 05:31N 01°15' E 103°53'0 0.0
2016-Jan-19 04:31N 01°15' E 103°53'0 0.0
2016-Jan-19 03:31N 01°15' E 103°53'0 0.1
2016-Jan-19 02:31N 01°15' E 103°53'0 0.1
2016-Jan-19 01:31N 01°15' E 103°53'0 0.1
2016-Jan-19 00:31N 01°15' E 103°53'0 0.0
2016-Jan-18 23:19N 01°15' E 103°53'0 0.0
2016-Jan-18 22:16N 01°15' E 103°53'0 0.0
2016-Jan-18 19:25N 01°15' E 103°53'0 0.0
2016-Jan-18 18:22N 01°15' E 103°53'0 0.0
2016-Jan-18 17:31N 01°15' E 103°53'0 0.0
2016-Jan-18 16:31N 01°15' E 103°53'0 0.0
2016-Jan-18 15:31N 01°15' E 103°53'0 0.0
2016-Jan-18 14:31N 01°15' E 103°53'0 0.0
2016-Jan-18 13:31N 01°15' E 103°53'0 0.0
2016-Jan-18 12:31N 01°15' E 103°53'0 0.0
2016-Jan-18 11:31N 01°15' E 103°53'0 0.0
2016-Jan-18 10:33N 01°15' E 103°53'0 0.0
2016-Jan-18 09:33N 01°15' E 103°53'0 0.2
2016-Jan-18 08:33N 01°15' E 103°53'5 4.7
2016-Jan-18 07:33N 01°15' E 103°58'10 9.9
2016-Jan-18 06:33N 01°16' E 104°07'  

Dump ship's entire track history